createdAt,value
2023-03-31T00:01:00.242Z,20
2023-03-31T00:02:07.104Z,21
2023-03-31T00:03:13.956Z,23
2023-03-31T00:04:20.772Z,26
2023-03-31T00:05:27.461Z,23
2023-03-31T00:06:34.205Z,22
2023-03-31T00:07:40.964Z,24
2023-03-31T00:08:47.749Z,19
2023-03-31T00:10:00.807Z,18
2023-03-31T00:11:01.593Z,20
2023-03-31T00:12:08.337Z,20
2023-03-31T00:13:18.042Z,22
2023-03-31T00:14:24.823Z,21
2023-03-31T00:15:31.643Z,23
2023-03-31T00:16:38.451Z,23
2023-03-31T00:17:45.322Z,21
2023-03-31T00:18:52.120Z,23
2023-03-31T00:19:58.925Z,24
2023-03-31T00:21:05.781Z,22
2023-03-31T00:22:15.220Z,21
2023-03-31T00:23:21.993Z,23
2023-03-31T00:24:28.795Z,23
2023-03-31T00:25:35.589Z,23
2023-03-31T00:26:42.507Z,22
2023-03-31T00:27:49.464Z,21
2023-03-31T00:28:56.307Z,21
2023-03-31T00:30:03.114Z,22
2023-03-31T00:31:10.337Z,23
2023-03-31T00:32:17.106Z,24
2023-03-31T00:33:23.883Z,24
2023-03-31T00:34:30.630Z,22
2023-03-31T00:35:37.407Z,23
2023-03-31T00:36:44.209Z,23
2023-03-31T00:37:50.914Z,21
2023-03-31T00:38:57.693Z,21
2023-03-31T00:40:04.428Z,19
2023-03-31T00:41:13.993Z,21
2023-03-31T00:42:20.796Z,22
2023-03-31T00:43:27.600Z,20
2023-03-31T00:44:37.444Z,20
2023-03-31T00:45:51.837Z,22
2023-03-31T00:46:58.559Z,21
2023-03-31T00:48:10.567Z,24
2023-03-31T00:49:17.183Z,20
2023-03-31T00:50:26.620Z,21
2023-03-31T00:51:33.552Z,19
2023-03-31T00:52:40.348Z,21
2023-03-31T00:53:47.108Z,19
2023-03-31T00:54:53.903Z,20
2023-03-31T00:56:03.611Z,19
2023-03-31T00:57:10.353Z,18
2023-03-31T00:58:17.088Z,19
2023-03-31T00:59:23.887Z,19
2023-03-31T01:00:30.769Z,22
2023-03-31T01:01:37.537Z,21
2023-03-31T01:02:44.327Z,20
2023-03-31T01:03:51.295Z,21
2023-03-31T01:04:58.187Z,21
2023-03-31T01:06:05.111Z,18
2023-03-31T01:07:11.804Z,20
2023-03-31T01:08:21.297Z,19
2023-03-31T01:09:28.029Z,18
2023-03-31T01:10:34.800Z,17
2023-03-31T01:11:44.748Z,17
2023-03-31T01:12:51.660Z,16
2023-03-31T01:13:58.390Z,17
2023-03-31T01:15:05.176Z,18
2023-03-31T01:16:12.075Z,20
2023-03-31T01:17:18.916Z,18
2023-03-31T01:18:25.757Z,18
2023-03-31T01:19:32.428Z,17
2023-03-31T01:20:42.009Z,16
2023-03-31T01:21:56.722Z,18
2023-03-31T01:23:11.341Z,17
2023-03-31T01:24:26.091Z,16
2023-03-31T01:25:42.996Z,18
2023-03-31T01:26:54.843Z,17
2023-03-31T01:28:04.144Z,16
2023-03-31T01:29:15.993Z,19
2023-03-31T01:30:22.749Z,18
2023-03-31T01:31:32.147Z,17
2023-03-31T01:32:44.383Z,20
2023-03-31T01:33:59.181Z,19
2023-03-31T01:35:15.994Z,19
2023-03-31T01:36:27.802Z,18
2023-03-31T01:37:39.689Z,17
2023-03-31T01:38:51.577Z,16
2023-03-31T01:40:08.490Z,18
2023-03-31T01:41:22.879Z,18
2023-03-31T01:42:34.787Z,17
2023-03-31T01:43:47.774Z,18
2023-03-31T01:44:57.346Z,17
2023-03-31T01:46:04.238Z,16
2023-03-31T01:47:18.749Z,16
2023-03-31T01:48:28.547Z,18
2023-03-31T01:49:35.342Z,16
2023-03-31T01:50:52.235Z,19
2023-03-31T01:52:07.255Z,17
2023-03-31T01:53:21.967Z,17
2023-03-31T01:54:36.561Z,18
2023-03-31T01:55:48.460Z,18
2023-03-31T01:56:57.912Z,17
2023-03-31T01:58:04.668Z,15
2023-03-31T01:59:16.499Z,17
2023-03-31T02:00:23.387Z,18
2023-03-31T02:01:31.203Z,16
2023-03-31T02:02:47.195Z,16
2023-03-31T02:03:56.719Z,15
2023-03-31T02:05:03.344Z,18
2023-03-31T02:06:15.271Z,17
2023-03-31T02:07:22.030Z,17
2023-03-31T02:08:33.820Z,17
2023-03-31T02:09:43.500Z,17
2023-03-31T02:10:52.965Z,14
2023-03-31T02:11:59.695Z,15
2023-03-31T02:13:06.606Z,17
2023-03-31T02:14:13.414Z,14
2023-03-31T02:15:22.781Z,16
2023-03-31T02:16:29.561Z,15
2023-03-31T02:17:36.272Z,15
2023-03-31T02:18:43.059Z,15
2023-03-31T02:19:49.890Z,15
2023-03-31T02:20:56.606Z,15
2023-03-31T02:22:03.390Z,14
2023-03-31T02:23:10.082Z,14
2023-03-31T02:24:16.904Z,16
2023-03-31T02:25:23.798Z,15
2023-03-31T02:26:33.479Z,14
2023-03-31T02:27:40.222Z,15
2023-03-31T02:28:47.038Z,16
2023-03-31T02:29:53.795Z,17
2023-03-31T02:31:00.614Z,17
2023-03-31T02:32:12.506Z,15
2023-03-31T02:33:27.035Z,15
2023-03-31T02:34:33.822Z,14
2023-03-31T02:35:40.680Z,15
2023-03-31T02:36:47.445Z,15
2023-03-31T02:37:54.358Z,14
2023-03-31T02:39:01.109Z,14
2023-03-31T02:40:07.853Z,14
2023-03-31T02:41:14.596Z,15
2023-03-31T02:42:21.496Z,14
2023-03-31T02:43:28.338Z,15
2023-03-31T02:44:35.077Z,14
2023-03-31T02:45:41.882Z,14
2023-03-31T02:46:48.659Z,14
2023-03-31T02:47:55.465Z,14
2023-03-31T02:49:02.302Z,13
2023-03-31T02:50:09.026Z,13
2023-03-31T02:51:15.787Z,13
2023-03-31T02:52:27.603Z,14
2023-03-31T02:53:42.027Z,13
2023-03-31T02:54:53.865Z,13
2023-03-31T02:56:05.826Z,12
2023-03-31T02:57:20.210Z,11
2023-03-31T02:58:32.134Z,12
2023-03-31T02:59:43.958Z,12
2023-03-31T03:01:00.969Z,13
2023-03-31T03:02:17.960Z,11
2023-03-31T03:03:34.859Z,10
2023-03-31T03:04:44.448Z,10
2023-03-31T03:05:59.347Z,11
2023-03-31T03:07:13.680Z,10
2023-03-31T03:08:28.532Z,11
2023-03-31T03:09:40.479Z,11
2023-03-31T03:10:49.904Z,11
2023-03-31T03:12:04.678Z,10
2023-03-31T03:13:14.429Z,10
2023-03-31T03:14:31.517Z,13
2023-03-31T03:15:43.399Z,11
2023-03-31T03:16:50.187Z,10
2023-03-31T03:17:57.074Z,10
2023-03-31T03:19:03.837Z,12
2023-03-31T03:20:10.602Z,11
2023-03-31T03:21:17.413Z,12
2023-03-31T03:22:24.258Z,11
2023-03-31T03:23:31.016Z,11
2023-03-31T03:24:37.762Z,12
2023-03-31T03:25:44.513Z,12
2023-03-31T03:26:51.285Z,12
2023-03-31T03:27:58.133Z,11
2023-03-31T03:29:04.868Z,12
2023-03-31T03:30:11.657Z,12
2023-03-31T03:31:18.381Z,11
2023-03-31T03:32:25.133Z,12
2023-03-31T03:33:32.018Z,14
2023-03-31T03:34:38.751Z,11
2023-03-31T03:35:45.544Z,11
2023-03-31T03:36:52.276Z,11
2023-03-31T03:37:59.038Z,12
2023-03-31T03:39:05.786Z,11
2023-03-31T03:40:12.525Z,10
2023-03-31T03:41:19.266Z,10
2023-03-31T03:42:26.046Z,10
2023-03-31T03:43:32.775Z,10
2023-03-31T03:44:39.592Z,11
2023-03-31T03:45:46.471Z,10
2023-03-31T03:46:53.229Z,12
2023-03-31T03:48:00.089Z,11
2023-03-31T03:49:06.843Z,13
2023-03-31T03:50:15.894Z,14
2023-03-31T03:51:20.605Z,14
2023-03-31T03:52:27.367Z,14
2023-03-31T03:53:34.130Z,15
2023-03-31T03:54:40.949Z,12
2023-03-31T03:55:47.818Z,12
2023-03-31T03:56:54.632Z,12
2023-03-31T03:58:01.400Z,15
2023-03-31T03:59:08.124Z,11
2023-03-31T04:00:14.961Z,11
2023-03-31T04:01:22.090Z,11
2023-03-31T04:02:29.016Z,12
2023-03-31T04:03:35.589Z,13
2023-03-31T04:04:42.427Z,11
2023-03-31T04:05:49.060Z,12
2023-03-31T04:06:55.820Z,14
2023-03-31T04:08:02.665Z,12
2023-03-31T04:09:09.401Z,10
2023-03-31T04:10:16.178Z,11
2023-03-31T04:11:22.882Z,9
2023-03-31T04:12:29.582Z,11
2023-03-31T04:13:39.128Z,12
2023-03-31T04:14:45.884Z,12
2023-03-31T04:15:52.658Z,11
2023-03-31T04:16:59.412Z,11
2023-03-31T04:18:06.134Z,11
2023-03-31T04:19:15.646Z,10
2023-03-31T04:20:22.361Z,11
2023-03-31T04:21:32.196Z,15
2023-03-31T04:22:39.159Z,11
2023-03-31T04:23:45.916Z,10
2023-03-31T04:24:55.788Z,10
2023-03-31T04:26:02.703Z,13
2023-03-31T04:27:09.425Z,11
2023-03-31T04:28:16.166Z,12
2023-03-31T04:29:22.996Z,11
2023-03-31T04:30:29.757Z,11
2023-03-31T04:31:36.566Z,12
2023-03-31T04:32:43.292Z,13
2023-03-31T04:33:50.052Z,16
2023-03-31T04:34:56.894Z,15
2023-03-31T04:36:04.029Z,13
2023-03-31T04:37:15.729Z,12
2023-03-31T04:38:22.578Z,11
2023-03-31T04:39:32.433Z,11
2023-03-31T04:40:39.288Z,12
2023-03-31T04:41:46.012Z,12
2023-03-31T04:42:52.771Z,12
2023-03-31T04:43:59.594Z,13
2023-03-31T04:45:06.436Z,13
2023-03-31T04:46:13.479Z,13
2023-03-31T04:47:20.191Z,10
2023-03-31T04:48:27.017Z,12
2023-03-31T04:49:33.773Z,11
2023-03-31T04:50:40.532Z,14
2023-03-31T04:51:47.251Z,10
2023-03-31T04:52:54.172Z,13
2023-03-31T04:54:00.939Z,11
2023-03-31T04:55:07.694Z,12
2023-03-31T04:56:14.543Z,10
2023-03-31T04:57:21.486Z,12
2023-03-31T04:58:28.158Z,10
2023-03-31T04:59:34.950Z,11
2023-03-31T05:00:41.836Z,13
2023-03-31T05:01:48.829Z,12
2023-03-31T05:02:55.906Z,13
2023-03-31T05:04:02.617Z,13
2023-03-31T05:05:09.401Z,14
2023-03-31T05:06:16.210Z,12
2023-03-31T05:07:23.025Z,12
2023-03-31T05:08:29.936Z,11
2023-03-31T05:09:36.671Z,13
2023-03-31T05:10:43.408Z,14
2023-03-31T05:11:50.125Z,13
2023-03-31T05:12:56.859Z,12
2023-03-31T05:14:03.722Z,11
2023-03-31T05:15:10.424Z,12
2023-03-31T05:16:17.226Z,12
2023-03-31T05:17:23.892Z,12
2023-03-31T05:18:30.668Z,12
2023-03-31T05:19:37.525Z,12
2023-03-31T05:20:44.312Z,11
2023-03-31T05:21:51.040Z,12
2023-03-31T05:22:57.827Z,11
2023-03-31T05:24:04.621Z,10
2023-03-31T05:25:11.638Z,12
2023-03-31T05:26:18.478Z,11
2023-03-31T05:27:25.218Z,10
2023-03-31T05:28:32.545Z,11
2023-03-31T05:29:38.870Z,10
2023-03-31T05:30:45.766Z,11
2023-03-31T05:31:52.518Z,11
2023-03-31T05:32:59.246Z,11
2023-03-31T05:34:06.015Z,10
2023-03-31T05:35:12.823Z,12
2023-03-31T05:36:19.809Z,10
2023-03-31T05:37:26.524Z,13
2023-03-31T05:38:33.391Z,11
2023-03-31T05:39:40.120Z,10
2023-03-31T05:40:46.947Z,11
2023-03-31T05:41:53.740Z,11
2023-03-31T05:43:00.466Z,12
2023-03-31T05:44:07.317Z,12
2023-03-31T05:45:14.042Z,11
2023-03-31T05:46:20.912Z,12
2023-03-31T05:47:27.704Z,11
2023-03-31T05:48:34.525Z,13
2023-03-31T05:49:41.240Z,10
2023-03-31T05:50:48.041Z,11
2023-03-31T05:51:54.777Z,11
2023-03-31T05:53:01.532Z,13
2023-03-31T05:54:08.377Z,12
2023-03-31T05:55:15.190Z,12
2023-03-31T05:56:22.001Z,11
2023-03-31T05:57:28.784Z,9
2023-03-31T05:58:35.651Z,11
2023-03-31T05:59:42.579Z,11
2023-03-31T06:00:49.399Z,11
2023-03-31T06:02:04.117Z,9
2023-03-31T06:03:10.935Z,9
2023-03-31T06:04:17.803Z,11
2023-03-31T06:05:24.574Z,12
2023-03-31T06:06:31.385Z,11
2023-03-31T06:07:38.220Z,11
2023-03-31T06:08:45.025Z,11
2023-03-31T06:09:51.821Z,9
2023-03-31T06:10:58.661Z,10
2023-03-31T06:12:07.155Z,10
2023-03-31T06:13:14.072Z,10
2023-03-31T06:14:20.857Z,12
2023-03-31T06:15:27.709Z,9
2023-03-31T06:16:34.523Z,10
2023-03-31T06:17:41.366Z,11
2023-03-31T06:18:48.165Z,10
2023-03-31T06:19:55.060Z,10
2023-03-31T06:21:01.843Z,11
2023-03-31T06:22:08.619Z,10
2023-03-31T06:23:15.373Z,13
2023-03-31T06:24:22.214Z,11
2023-03-31T06:25:32.497Z,12
2023-03-31T06:26:35.763Z,13
2023-03-31T06:27:42.572Z,11
2023-03-31T06:28:49.355Z,13
2023-03-31T06:29:56.115Z,10
2023-03-31T06:31:03.080Z,9
2023-03-31T06:32:09.881Z,10
2023-03-31T06:33:16.611Z,11
2023-03-31T06:34:23.393Z,11
2023-03-31T06:35:30.325Z,10
2023-03-31T06:36:37.098Z,10
2023-03-31T06:37:43.879Z,9
2023-03-31T06:38:50.677Z,9
2023-03-31T06:39:57.502Z,11
2023-03-31T06:41:04.574Z,10
2023-03-31T06:42:11.045Z,10
2023-03-31T06:43:17.897Z,10
2023-03-31T06:44:24.675Z,11
2023-03-31T06:45:31.475Z,9
2023-03-31T06:46:38.342Z,10
2023-03-31T06:47:45.168Z,9
2023-03-31T06:48:52.011Z,12
2023-03-31T06:49:58.834Z,11
2023-03-31T06:51:05.612Z,10
2023-03-31T06:52:12.414Z,11
2023-03-31T06:53:19.245Z,10
2023-03-31T06:54:26.038Z,9
2023-03-31T06:55:32.877Z,10
2023-03-31T06:56:39.594Z,11
2023-03-31T06:57:46.285Z,10
2023-03-31T06:58:53.121Z,9
2023-03-31T06:59:59.988Z,10
2023-03-31T07:01:07.173Z,10
2023-03-31T07:02:13.733Z,11
2023-03-31T07:03:20.529Z,10
2023-03-31T07:04:27.402Z,10
2023-03-31T07:05:34.254Z,9
2023-03-31T07:06:41.030Z,11
2023-03-31T07:07:47.793Z,10
2023-03-31T07:08:54.595Z,11
2023-03-31T07:10:01.384Z,10
2023-03-31T07:11:08.626Z,10
2023-03-31T07:12:15.448Z,11
2023-03-31T07:13:22.088Z,8
2023-03-31T07:14:28.832Z,7
2023-03-31T07:15:35.620Z,9
2023-03-31T07:16:42.492Z,10
2023-03-31T07:17:49.271Z,9
2023-03-31T07:18:55.941Z,8
2023-03-31T07:20:02.657Z,10
2023-03-31T07:21:10.431Z,9
2023-03-31T07:22:16.631Z,9
2023-03-31T07:23:23.374Z,9
2023-03-31T07:24:30.173Z,10
2023-03-31T07:25:36.897Z,10
2023-03-31T07:26:43.645Z,11
2023-03-31T07:27:50.452Z,9
2023-03-31T07:28:57.205Z,10
2023-03-31T07:30:04.093Z,10
2023-03-31T07:31:11.101Z,11
2023-03-31T07:32:17.954Z,10
2023-03-31T07:33:24.657Z,10
2023-03-31T07:34:31.486Z,9
2023-03-31T07:35:38.341Z,8
2023-03-31T07:36:45.123Z,10
2023-03-31T07:37:51.817Z,8
2023-03-31T07:38:58.684Z,9
2023-03-31T07:40:05.509Z,10
2023-03-31T07:41:12.363Z,9
2023-03-31T07:42:19.056Z,9
2023-03-31T07:43:25.824Z,10
2023-03-31T07:44:32.736Z,10
2023-03-31T07:45:39.651Z,11
2023-03-31T07:46:46.407Z,9
2023-03-31T07:47:53.247Z,9
2023-03-31T07:49:00.099Z,10
2023-03-31T07:50:06.929Z,10
2023-03-31T07:51:13.801Z,8
2023-03-31T07:52:20.557Z,9
2023-03-31T07:53:27.301Z,8
2023-03-31T07:54:34.143Z,10
2023-03-31T07:55:40.898Z,8
2023-03-31T07:56:47.816Z,9
2023-03-31T07:57:54.543Z,8
2023-03-31T07:59:01.321Z,9
2023-03-31T08:00:08.088Z,8
2023-03-31T08:01:15.189Z,7
2023-03-31T08:02:22.162Z,9
2023-03-31T08:03:28.837Z,10
2023-03-31T08:04:35.686Z,10
2023-03-31T08:05:42.441Z,11
2023-03-31T08:06:49.195Z,8
2023-03-31T08:07:55.886Z,8
2023-03-31T08:09:02.679Z,7
2023-03-31T08:10:09.438Z,9
2023-03-31T08:11:16.217Z,8
2023-03-31T08:12:22.937Z,13
2023-03-31T08:13:29.863Z,10
2023-03-31T08:14:40.865Z,11
2023-03-31T08:15:43.452Z,9
2023-03-31T08:16:50.220Z,11
2023-03-31T08:17:56.929Z,9
2023-03-31T08:19:03.780Z,9
2023-03-31T08:20:10.748Z,9
2023-03-31T08:21:17.329Z,9
2023-03-31T08:22:24.117Z,9
2023-03-31T08:23:30.860Z,9
2023-03-31T08:24:37.668Z,9
2023-03-31T08:25:44.533Z,9
2023-03-31T08:26:51.335Z,8
2023-03-31T08:27:58.122Z,8
2023-03-31T08:29:04.882Z,11
2023-03-31T08:30:11.635Z,10
2023-03-31T08:31:18.889Z,7
2023-03-31T08:32:25.470Z,8
2023-03-31T08:33:32.187Z,8
2023-03-31T08:34:38.937Z,13
2023-03-31T08:35:45.727Z,9
2023-03-31T08:36:52.418Z,8
2023-03-31T08:37:59.231Z,8
2023-03-31T08:39:06.037Z,7
2023-03-31T08:40:12.799Z,9
2023-03-31T08:41:19.555Z,8
2023-03-31T08:42:36.483Z,9
2023-03-31T08:43:49.047Z,7
2023-03-31T08:44:55.763Z,8
2023-03-31T08:46:12.807Z,8
2023-03-31T08:47:19.580Z,11
2023-03-31T08:48:26.424Z,9
2023-03-31T08:49:33.241Z,10
2023-03-31T08:50:42.589Z,15
2023-03-31T08:51:49.334Z,13
2023-03-31T08:52:56.095Z,23
2023-03-31T08:54:11.939Z,10
2023-03-31T08:55:20.313Z,17
2023-03-31T08:56:27.017Z,15
2023-03-31T08:57:36.796Z,12
2023-03-31T08:58:49.009Z,11
2023-03-31T08:59:55.717Z,9
2023-03-31T09:01:02.583Z,10
2023-03-31T09:02:12.024Z,9
2023-03-31T09:03:28.999Z,9
2023-03-31T09:04:40.849Z,9
2023-03-31T09:05:59.172Z,10
2023-03-31T09:07:02.059Z,11
2023-03-31T09:08:13.915Z,10
2023-03-31T09:09:30.829Z,11
2023-03-31T09:10:42.794Z,13
2023-03-31T09:11:59.651Z,11
2023-03-31T09:13:06.374Z,10
2023-03-31T09:14:13.203Z,8
2023-03-31T09:15:27.921Z,10
2023-03-31T09:16:39.825Z,12
2023-03-31T09:17:51.660Z,9
2023-03-31T09:18:58.318Z,10
2023-03-31T09:20:05.172Z,7
2023-03-31T09:21:17.009Z,8
2023-03-31T09:22:28.952Z,10
2023-03-31T09:23:35.707Z,9
2023-03-31T09:24:42.440Z,7
2023-03-31T09:25:51.981Z,9
2023-03-31T09:26:58.817Z,10
2023-03-31T09:28:08.601Z,10
2023-03-31T09:29:23.606Z,10
2023-03-31T09:30:40.556Z,8
2023-03-31T09:31:47.364Z,8
2023-03-31T09:32:54.097Z,8
2023-03-31T09:34:10.936Z,9
2023-03-31T09:35:17.725Z,8
2023-03-31T09:36:24.523Z,12
2023-03-31T09:37:31.237Z,12
2023-03-31T09:38:38.006Z,7
2023-03-31T09:39:44.761Z,10
2023-03-31T09:40:51.745Z,12
2023-03-31T09:41:58.487Z,9
2023-03-31T09:43:05.262Z,8
2023-03-31T09:44:11.998Z,9
2023-03-31T09:45:28.947Z,11
2023-03-31T09:46:35.752Z,8
2023-03-31T09:47:42.483Z,8
2023-03-31T09:48:49.158Z,9
2023-03-31T09:50:01.002Z,8
2023-03-31T09:51:08.111Z,9
2023-03-31T09:52:17.582Z,11
2023-03-31T09:53:30.082Z,10
2023-03-31T09:54:39.635Z,10
2023-03-31T09:55:49.172Z,9
2023-03-31T09:56:55.934Z,8
2023-03-31T09:58:02.734Z,8
2023-03-31T09:59:09.559Z,8
2023-03-31T10:00:16.777Z,9
2023-03-31T10:01:23.427Z,7
2023-03-31T10:02:30.141Z,8
2023-03-31T10:03:39.554Z,10
2023-03-31T10:04:54.330Z,9
2023-03-31T10:06:01.073Z,8
2023-03-31T10:07:13.706Z,8
2023-03-31T10:08:20.570Z,11
2023-03-31T10:09:29.834Z,10
2023-03-31T10:10:36.661Z,9
2023-03-31T10:11:43.450Z,8
2023-03-31T10:12:55.390Z,7
2023-03-31T10:14:02.282Z,9
2023-03-31T10:15:14.245Z,10
2023-03-31T10:16:24.128Z,7
2023-03-31T10:17:33.984Z,8
2023-03-31T10:18:37.850Z,9
2023-03-31T10:19:44.404Z,10
2023-03-31T10:20:54.259Z,7
2023-03-31T10:22:01.017Z,8
2023-03-31T10:23:12.800Z,10
2023-03-31T10:24:19.665Z,11
2023-03-31T10:25:26.492Z,7
2023-03-31T10:26:33.303Z,7
2023-03-31T10:27:40.083Z,10
2023-03-31T10:28:46.904Z,11
2023-03-31T10:29:53.652Z,9
2023-03-31T10:31:00.555Z,9
2023-03-31T10:32:07.370Z,9
2023-03-31T10:33:22.936Z,9
2023-03-31T10:34:26.012Z,9
2023-03-31T10:35:32.838Z,12
2023-03-31T10:36:39.587Z,10
2023-03-31T10:37:49.155Z,9
2023-03-31T10:38:58.838Z,8
2023-03-31T10:40:08.497Z,9
2023-03-31T10:41:20.417Z,11
2023-03-31T10:42:29.968Z,7
2023-03-31T10:43:36.713Z,9
2023-03-31T10:44:43.520Z,9
2023-03-31T10:45:50.311Z,9
2023-03-31T10:46:57.246Z,9
2023-03-31T10:48:06.899Z,9
2023-03-31T10:49:21.249Z,8
2023-03-31T10:50:27.982Z,9
2023-03-31T10:51:34.768Z,9
2023-03-31T10:52:41.595Z,8
2023-03-31T10:53:48.413Z,9
2023-03-31T10:54:55.135Z,12
2023-03-31T10:56:01.989Z,10
2023-03-31T10:57:11.925Z,9
2023-03-31T10:58:18.752Z,9
2023-03-31T10:59:30.768Z,10
2023-03-31T11:00:45.377Z,11
2023-03-31T11:02:00.404Z,12
2023-03-31T11:03:16.744Z,8
2023-03-31T11:04:28.536Z,10
2023-03-31T11:05:40.375Z,10
2023-03-31T11:06:55.127Z,9
2023-03-31T11:08:12.111Z,9
2023-03-31T11:09:29.023Z,10
2023-03-31T11:10:40.956Z,11
2023-03-31T11:11:52.736Z,11
2023-03-31T11:13:04.549Z,9
2023-03-31T11:14:21.594Z,8
2023-03-31T11:15:38.530Z,8
2023-03-31T11:16:50.403Z,7
2023-03-31T11:18:07.397Z,7
2023-03-31T11:19:24.226Z,8
2023-03-31T11:20:33.668Z,8
2023-03-31T11:21:50.547Z,10
2023-03-31T11:23:00.298Z,15
2023-03-31T11:24:14.740Z,13
2023-03-31T11:25:31.713Z,10
2023-03-31T11:26:48.606Z,9
2023-03-31T11:28:00.474Z,9
2023-03-31T11:29:17.372Z,10
2023-03-31T11:30:32.049Z,9
2023-03-31T11:31:41.380Z,22
2023-03-31T11:32:53.302Z,9
2023-03-31T11:34:10.180Z,13
2023-03-31T11:35:16.898Z,13
2023-03-31T11:36:29.443Z,14
2023-03-31T11:37:41.228Z,11
2023-03-31T11:38:53.079Z,12
2023-03-31T11:40:02.829Z,9
2023-03-31T11:41:14.735Z,12
2023-03-31T11:42:24.244Z,10
2023-03-31T11:43:31.008Z,9
2023-03-31T11:44:42.969Z,8
2023-03-31T11:45:49.733Z,10
2023-03-31T11:47:01.686Z,10
2023-03-31T11:48:13.669Z,7
2023-03-31T11:49:30.579Z,14
2023-03-31T11:50:40.018Z,9
2023-03-31T11:51:46.739Z,17
2023-03-31T11:52:56.403Z,12
2023-03-31T11:54:03.319Z,11
2023-03-31T11:55:10.185Z,8
2023-03-31T11:56:19.979Z,11
2023-03-31T11:57:26.872Z,7
2023-03-31T11:58:36.149Z,10
2023-03-31T11:59:42.916Z,9
2023-03-31T12:00:49.750Z,9
2023-03-31T12:01:56.507Z,8
2023-03-31T12:03:08.407Z,8
2023-03-31T12:04:17.883Z,6
2023-03-31T12:05:32.379Z,7
2023-03-31T12:06:39.131Z,7
2023-03-31T12:07:45.873Z,9
2023-03-31T12:08:55.545Z,6
2023-03-31T12:10:10.188Z,7
2023-03-31T12:11:25.072Z,9
2023-03-31T12:12:40.102Z,6
2023-03-31T12:13:49.484Z,6
2023-03-31T12:14:56.284Z,7
2023-03-31T12:16:06.037Z,7
2023-03-31T12:17:15.576Z,7
2023-03-31T12:18:30.413Z,7
2023-03-31T12:19:37.155Z,8
2023-03-31T12:20:54.141Z,7
2023-03-31T12:22:00.930Z,6
2023-03-31T12:23:12.809Z,8
2023-03-31T12:24:22.472Z,7
2023-03-31T12:25:29.246Z,9
2023-03-31T12:26:36.105Z,9
2023-03-31T12:27:53.005Z,7
2023-03-31T12:28:59.840Z,10
2023-03-31T12:30:09.504Z,8
2023-03-31T12:31:19.411Z,7
2023-03-31T12:32:26.221Z,8
2023-03-31T12:33:32.990Z,7
2023-03-31T12:34:42.786Z,8
2023-03-31T12:35:54.703Z,9
2023-03-31T12:37:06.641Z,6
2023-03-31T12:38:18.561Z,6
2023-03-31T12:39:35.440Z,7
2023-03-31T12:40:49.892Z,8
2023-03-31T12:42:01.735Z,8
2023-03-31T12:43:16.339Z,8
2023-03-31T12:44:31.189Z,7
2023-03-31T12:45:45.678Z,9
2023-03-31T12:46:57.480Z,8
2023-03-31T12:48:12.105Z,9
2023-03-31T12:49:26.938Z,8
2023-03-31T12:50:43.886Z,9
2023-03-31T12:51:56.547Z,7
2023-03-31T12:53:08.383Z,8
2023-03-31T12:54:17.871Z,7
2023-03-31T12:55:34.712Z,7
2023-03-31T12:56:47.178Z,7
2023-03-31T12:58:04.076Z,7
2023-03-31T12:59:21.032Z,8
2023-03-31T13:00:33.063Z,8
2023-03-31T13:01:40.086Z,9
2023-03-31T13:02:56.945Z,7
2023-03-31T13:04:14.873Z,6
2023-03-31T13:05:20.645Z,6
2023-03-31T13:06:37.593Z,7
2023-03-31T13:07:44.408Z,8
2023-03-31T13:08:51.283Z,8
2023-03-31T13:10:06.028Z,7
2023-03-31T13:11:20.551Z,10
2023-03-31T13:12:37.539Z,11
2023-03-31T13:14:59.073Z,15
2023-03-31T13:16:05.863Z,21
2023-03-31T13:17:12.694Z,16
2023-03-31T13:18:27.052Z,18
2023-03-31T13:19:33.927Z,12
2023-03-31T13:20:40.692Z,13
2023-03-31T13:21:47.620Z,12
2023-03-31T13:22:57.255Z,16
2023-03-31T13:24:09.097Z,18
2023-03-31T13:25:15.859Z,17
2023-03-31T13:26:32.693Z,16
2023-03-31T13:27:39.599Z,14
2023-03-31T13:28:51.430Z,15
2023-03-31T13:30:03.226Z,16
2023-03-31T13:31:10.153Z,14
2023-03-31T13:32:16.960Z,13
2023-03-31T13:33:26.488Z,12
2023-03-31T13:34:38.409Z,12
2023-03-31T13:35:45.421Z,11
2023-03-31T13:36:57.267Z,14
2023-03-31T13:38:11.975Z,10
2023-03-31T13:39:26.543Z,10
2023-03-31T13:40:33.487Z,10
2023-03-31T13:41:50.393Z,11
2023-03-31T13:43:04.991Z,10
2023-03-31T13:44:19.511Z,12
2023-03-31T13:45:34.133Z,11
2023-03-31T13:46:46.015Z,12
2023-03-31T13:48:02.989Z,14
2023-03-31T13:49:19.868Z,12
2023-03-31T13:50:29.371Z,13
2023-03-31T13:51:46.441Z,13
2023-03-31T13:52:58.304Z,11
2023-03-31T13:54:10.181Z,11
2023-03-31T13:55:22.393Z,12
2023-03-31T13:56:37.161Z,11
2023-03-31T13:57:53.983Z,12
2023-03-31T13:59:05.918Z,11
2023-03-31T14:00:17.756Z,12
2023-03-31T14:01:32.293Z,9
2023-03-31T14:02:46.891Z,8
2023-03-31T14:03:56.492Z,8
2023-03-31T14:05:11.146Z,8
2023-03-31T14:06:23.072Z,9
2023-03-31T14:07:39.976Z,7
2023-03-31T14:08:46.750Z,8
2023-03-31T14:09:56.178Z,7
2023-03-31T14:11:03.007Z,7
2023-03-31T14:12:19.884Z,7
2023-03-31T14:13:34.489Z,9
2023-03-31T14:14:41.320Z,10
2023-03-31T14:15:48.097Z,7
2023-03-31T14:16:59.946Z,8
2023-03-31T14:18:06.702Z,8
2023-03-31T14:19:13.427Z,8
2023-03-31T14:20:25.289Z,9
2023-03-31T14:21:32.048Z,7
2023-03-31T14:22:43.863Z,7
2023-03-31T14:23:58.724Z,8
2023-03-31T14:25:10.553Z,8
2023-03-31T14:26:20.050Z,9
2023-03-31T14:27:37.908Z,7
2023-03-31T14:28:49.870Z,8
2023-03-31T14:30:01.828Z,9
2023-03-31T14:31:08.828Z,8
2023-03-31T14:32:20.486Z,8
2023-03-31T14:33:32.328Z,6
2023-03-31T14:34:49.189Z,7
2023-03-31T14:36:01.137Z,8
2023-03-31T14:37:12.944Z,9
2023-03-31T14:38:19.763Z,11
2023-03-31T14:39:26.537Z,9
2023-03-31T14:40:33.320Z,10
2023-03-31T14:41:40.053Z,10
2023-03-31T14:42:46.874Z,11
2023-03-31T14:43:53.717Z,10
2023-03-31T14:45:00.549Z,11
2023-03-31T14:46:07.612Z,9
2023-03-31T14:47:14.310Z,9
2023-03-31T14:48:24.117Z,8
2023-03-31T14:49:30.960Z,13
2023-03-31T14:50:37.853Z,14
2023-03-31T14:51:44.601Z,16
2023-03-31T14:52:53.987Z,13
2023-03-31T14:54:00.781Z,10
2023-03-31T14:55:07.643Z,14
2023-03-31T14:56:17.379Z,11
2023-03-31T14:57:24.295Z,12
2023-03-31T14:58:33.698Z,12
2023-03-31T14:59:40.600Z,10
2023-03-31T15:00:47.418Z,10
2023-03-31T15:01:54.253Z,11
2023-03-31T15:03:01.202Z,8
2023-03-31T15:04:07.910Z,9
2023-03-31T15:05:14.705Z,10
2023-03-31T15:06:29.123Z,9
2023-03-31T15:07:35.914Z,8
2023-03-31T15:08:42.800Z,9
2023-03-31T15:09:49.557Z,8
2023-03-31T15:11:02.242Z,10
2023-03-31T15:12:03.110Z,11
2023-03-31T15:13:09.927Z,7
2023-03-31T15:14:21.841Z,9
2023-03-31T15:15:34.461Z,9
2023-03-31T15:16:41.232Z,12
2023-03-31T15:17:47.952Z,11
2023-03-31T15:18:54.826Z,11
2023-03-31T15:20:01.679Z,10
2023-03-31T15:21:18.655Z,11
2023-03-31T15:22:25.372Z,11
2023-03-31T15:23:32.322Z,12
2023-03-31T15:24:39.091Z,12
2023-03-31T15:25:45.849Z,11
2023-03-31T15:26:52.698Z,10
2023-03-31T15:28:02.166Z,11
2023-03-31T15:29:08.938Z,11
2023-03-31T15:30:15.816Z,11
2023-03-31T15:31:22.641Z,12
2023-03-31T15:32:29.552Z,14
2023-03-31T15:33:38.956Z,11
2023-03-31T15:34:45.727Z,11
2023-03-31T15:35:52.521Z,10
2023-03-31T15:36:59.391Z,11
2023-03-31T15:38:06.237Z,13
2023-03-31T15:39:13.163Z,10
2023-03-31T15:40:19.943Z,10
2023-03-31T15:41:26.751Z,10
2023-03-31T15:42:35.025Z,10
2023-03-31T15:43:40.441Z,11
2023-03-31T15:44:50.133Z,12
2023-03-31T15:45:56.964Z,13
2023-03-31T15:47:03.679Z,10
2023-03-31T15:48:20.631Z,11
2023-03-31T15:49:32.478Z,11
2023-03-31T15:50:39.359Z,11
2023-03-31T15:51:46.134Z,10
2023-03-31T15:52:53.060Z,12
2023-03-31T15:53:59.820Z,12
2023-03-31T15:55:06.638Z,11
2023-03-31T15:56:23.541Z,13
2023-03-31T15:57:38.161Z,11
2023-03-31T15:58:44.974Z,10
2023-03-31T15:59:57.259Z,11
2023-03-31T16:01:03.863Z,11
2023-03-31T16:02:10.681Z,10
2023-03-31T16:03:24.109Z,10
2023-03-31T16:04:29.435Z,10
2023-03-31T16:05:40.531Z,10
2023-03-31T16:06:43.319Z,9
2023-03-31T16:07:55.221Z,9
2023-03-31T16:09:01.993Z,10
2023-03-31T16:10:08.792Z,9
2023-03-31T16:11:23.335Z,10
2023-03-31T16:12:35.164Z,10
2023-03-31T16:13:44.719Z,11
2023-03-31T16:14:54.276Z,11
2023-03-31T16:16:01.041Z,10
2023-03-31T16:17:07.916Z,13
2023-03-31T16:18:14.753Z,15
2023-03-31T16:19:21.799Z,15
2023-03-31T16:20:28.612Z,17
2023-03-31T16:21:35.335Z,19
2023-03-31T16:22:42.154Z,28
2023-03-31T16:23:48.915Z,30
2023-03-31T16:24:55.836Z,31
2023-03-31T16:26:02.628Z,30
2023-03-31T16:27:09.370Z,35
2023-03-31T16:28:16.164Z,21
2023-03-31T16:29:22.930Z,30
2023-03-31T16:30:29.696Z,30
2023-03-31T16:31:36.541Z,21
2023-03-31T16:32:43.288Z,23
2023-03-31T16:34:00.124Z,22